createdAt,value
2018-12-20T00:02:08.463Z,25.00
2018-12-20T00:04:36.811Z,24.00
2018-12-20T00:07:05.198Z,25.40
2018-12-20T00:09:33.385Z,25.07
2018-12-20T00:12:01.514Z,21.13
2018-12-20T00:14:30.112Z,22.03
2018-12-20T00:20:02.145Z,20.73
2018-12-20T00:22:30.577Z,26.30
2018-12-20T00:24:58.516Z,24.87
2018-12-20T00:27:26.513Z,25.60
2018-12-20T00:29:54.513Z,25.87
2018-12-20T00:32:22.927Z,25.43
2018-12-20T00:34:50.972Z,26.60
2018-12-20T00:37:19.411Z,27.23
2018-12-20T00:39:47.887Z,23.40
2018-12-20T00:42:15.785Z,22.77
2018-12-20T00:44:43.824Z,27.27
2018-12-20T00:47:11.899Z,26.03
2018-12-20T00:49:39.998Z,26.23
2018-12-20T00:52:08.079Z,27.77
2018-12-20T00:54:36.560Z,26.90
2018-12-20T00:57:04.590Z,27.37
2018-12-20T00:59:32.475Z,24.53
2018-12-20T01:02:01.960Z,27.90
2018-12-20T01:04:30.015Z,26.83
2018-12-20T01:06:58.126Z,28.80
2018-12-20T01:09:26.575Z,27.50
2018-12-20T01:11:54.648Z,26.57
2018-12-20T01:14:22.799Z,27.43
2018-12-20T01:16:50.790Z,24.30
2018-12-20T01:19:19.283Z,24.53
2018-12-20T01:21:47.476Z,29.13
2018-12-20T01:24:15.847Z,26.87
2018-12-20T01:26:43.924Z,27.87
2018-12-20T01:29:12.153Z,25.77
2018-12-20T01:31:40.371Z,24.07
2018-12-20T01:34:08.534Z,25.30
2018-12-20T01:36:36.857Z,25.90
2018-12-20T01:39:06.324Z,28.40
2018-12-20T01:41:34.834Z,22.70
2018-12-20T01:44:03.149Z,26.60
2018-12-20T01:46:31.313Z,28.33
2018-12-20T01:48:59.667Z,28.10
2018-12-20T01:51:28.310Z,26.10
2018-12-20T01:53:56.557Z,28.93
2018-12-20T01:56:24.565Z,26.20
2018-12-20T01:58:52.698Z,25.47
2018-12-20T02:01:20.964Z,29.10
2018-12-20T02:03:49.051Z,29.17
2018-12-20T02:06:17.668Z,27.67
2018-12-20T02:08:45.809Z,26.60
2018-12-20T02:11:13.959Z,28.10
2018-12-20T02:13:42.739Z,28.63
2018-12-20T02:16:10.967Z,30.60
2018-12-20T02:18:38.984Z,30.60
2018-12-20T02:21:07.584Z,31.47
2018-12-20T02:23:35.934Z,36.27
2018-12-20T02:26:04.032Z,34.47
2018-12-20T02:28:32.701Z,34.03
2018-12-20T02:31:00.791Z,33.40
2018-12-20T02:33:28.671Z,39.90
2018-12-20T02:35:56.859Z,44.03
2018-12-20T02:38:25.620Z,40.07
2018-12-20T02:40:53.817Z,41.27
2018-12-20T02:43:22.200Z,39.80
2018-12-20T02:45:50.904Z,38.43
2018-12-20T02:48:19.082Z,35.77
2018-12-20T02:50:47.202Z,36.83
2018-12-20T02:53:15.495Z,38.50
2018-12-20T02:55:43.577Z,40.10
2018-12-20T02:58:11.441Z,40.80
2018-12-20T03:00:39.894Z,46.87
2018-12-20T03:03:08.095Z,40.03
2018-12-20T03:05:36.254Z,44.90
2018-12-20T03:08:04.300Z,45.03
2018-12-20T03:10:32.500Z,46.47
2018-12-20T03:13:00.711Z,45.40
2018-12-20T03:15:29.170Z,51.03
2018-12-20T03:17:57.409Z,50.13
2018-12-20T03:20:25.408Z,48.77
2018-12-20T03:22:53.737Z,49.33
2018-12-20T03:25:22.182Z,48.90
2018-12-20T03:27:50.379Z,52.30
2018-12-20T03:30:18.647Z,54.40
2018-12-20T03:32:46.763Z,56.97
2018-12-20T03:35:14.926Z,56.47
2018-12-20T03:37:43.447Z,53.70
2018-12-20T03:40:11.626Z,57.13
2018-12-20T03:42:39.717Z,51.07
2018-12-20T03:45:07.861Z,57.33
2018-12-20T03:47:36.110Z,55.47
2018-12-20T03:50:05.102Z,63.07
2018-12-20T03:52:33.183Z,60.47
2018-12-20T03:55:01.308Z,58.73
2018-12-20T03:57:29.634Z,70.77
2018-12-20T03:59:58.089Z,64.40
2018-12-20T04:02:25.971Z,67.80
2018-12-20T04:04:54.021Z,66.27
2018-12-20T04:07:22.629Z,67.00
2018-12-20T04:09:51.033Z,60.43
2018-12-20T04:12:19.292Z,70.27
2018-12-20T04:14:47.144Z,62.17
2018-12-20T04:17:15.195Z,66.43
2018-12-20T04:19:43.254Z,58.47
2018-12-20T04:22:11.523Z,53.97
2018-12-20T04:24:39.408Z,61.03
2018-12-20T04:27:07.589Z,55.90
2018-12-20T04:29:35.603Z,57.37
2018-12-20T04:32:03.640Z,54.70
2018-12-20T04:34:31.708Z,60.57
2018-12-20T04:37:00.400Z,54.60
2018-12-20T04:39:28.649Z,57.07
2018-12-20T04:41:56.718Z,58.13
2018-12-20T04:44:24.846Z,54.57
2018-12-20T04:46:53.075Z,51.80
2018-12-20T04:49:21.374Z,57.60
2018-12-20T04:51:49.991Z,53.73
2018-12-20T04:54:18.108Z,56.47
2018-12-20T04:56:46.547Z,53.60
2018-12-20T04:59:14.656Z,48.90
2018-12-20T05:01:42.756Z,48.60
2018-12-20T05:04:11.020Z,52.93
2018-12-20T05:06:39.781Z,50.83
2018-12-20T05:09:08.039Z,49.87
2018-12-20T05:11:36.183Z,48.83
2018-12-20T05:14:04.998Z,48.67
2018-12-20T05:16:33.161Z,52.43
2018-12-20T05:19:01.281Z,46.73
2018-12-20T05:21:29.370Z,47.80
2018-12-20T05:23:57.933Z,52.87
2018-12-20T05:26:26.159Z,46.37
2018-12-20T05:28:54.176Z,52.53
2018-12-20T05:31:22.607Z,48.67
2018-12-20T05:33:50.726Z,50.43
2018-12-20T05:36:18.677Z,48.00
2018-12-20T05:38:46.661Z,53.40
2018-12-20T05:41:14.740Z,51.23
2018-12-20T05:43:43.363Z,54.13
2018-12-20T05:46:11.411Z,54.90
2018-12-20T05:48:39.380Z,52.13
2018-12-20T05:51:07.300Z,52.37
2018-12-20T05:53:35.356Z,50.57
2018-12-20T05:56:03.579Z,58.60
2018-12-20T05:58:31.905Z,61.13
2018-12-20T06:01:00.058Z,56.67
2018-12-20T06:03:28.272Z,63.87
2018-12-20T06:05:56.302Z,67.17
2018-12-20T06:08:24.587Z,64.80
2018-12-20T06:10:52.567Z,62.40
2018-12-20T06:13:21.108Z,70.90
2018-12-20T06:15:49.346Z,68.03
2018-12-20T06:18:17.288Z,70.97
2018-12-20T06:20:45.491Z,70.07
2018-12-20T06:23:14.063Z,99.10
2018-12-20T06:25:42.143Z,88.80
2018-12-20T06:28:10.020Z,70.37
2018-12-20T06:30:38.022Z,84.03
2018-12-20T06:33:06.282Z,71.17
2018-12-20T06:35:34.300Z,75.87
2018-12-20T06:38:02.325Z,73.13
2018-12-20T06:40:31.221Z,74.10
2018-12-20T06:42:59.280Z,81.10
2018-12-20T06:45:27.225Z,72.50
2018-12-20T06:47:55.584Z,71.33
2018-12-20T06:50:23.455Z,81.27
2018-12-20T06:52:53.238Z,79.07
2018-12-20T06:55:21.854Z,77.13
2018-12-20T06:57:49.799Z,75.10
2018-12-20T07:00:17.747Z,77.20
2018-12-20T07:02:45.916Z,82.97
2018-12-20T07:05:13.977Z,79.77
2018-12-20T07:07:42.057Z,78.57
2018-12-20T07:10:10.004Z,83.03
2018-12-20T07:12:38.070Z,84.73
2018-12-20T07:15:08.375Z,93.80
2018-12-20T07:17:36.522Z,88.03
2018-12-20T07:20:05.668Z,91.57
2018-12-20T07:22:33.905Z,91.87
2018-12-20T07:25:01.787Z,97.97
2018-12-20T07:27:30.015Z,96.30
2018-12-20T07:29:59.009Z,83.07
2018-12-20T07:32:26.982Z,92.70
2018-12-20T07:34:55.416Z,88.03
2018-12-20T07:37:24.307Z,90.80
2018-12-20T07:39:54.843Z,98.57
2018-12-20T07:42:22.874Z,87.20
2018-12-20T07:44:50.940Z,93.07
2018-12-20T07:47:20.328Z,91.57
2018-12-20T07:49:56.678Z,84.33
2018-12-20T07:52:26.431Z,84.33
2018-12-20T07:54:54.492Z,83.53
2018-12-20T07:57:22.557Z,91.37
2018-12-20T07:59:50.400Z,89.40
2018-12-20T08:02:18.392Z,89.20
2018-12-20T08:04:46.619Z,89.37
2018-12-20T08:07:14.503Z,89.70
2018-12-20T08:09:42.481Z,89.70
2018-12-20T08:12:36.494Z,92.80
2018-12-20T08:15:07.833Z,84.87
2018-12-20T08:17:36.103Z,83.33
2018-12-20T08:20:05.118Z,83.00
2018-12-20T08:22:32.974Z,84.70
2018-12-20T08:25:01.236Z,76.07
2018-12-20T08:27:29.096Z,81.50
2018-12-20T08:29:57.023Z,89.30
2018-12-20T08:32:25.606Z,76.93
2018-12-20T08:34:53.744Z,85.03
2018-12-20T08:37:21.826Z,82.43
2018-12-20T08:39:49.716Z,79.77
2018-12-20T08:42:17.822Z,84.30
2018-12-20T08:44:45.808Z,74.50
2018-12-20T08:47:13.895Z,77.57
2018-12-20T08:49:41.796Z,74.80
2018-12-20T08:52:11.558Z,77.50
2018-12-20T08:54:39.781Z,71.87
2018-12-20T08:57:07.643Z,67.37
2018-12-20T08:59:35.496Z,73.20
2018-12-20T09:02:04.836Z,65.37
2018-12-20T09:04:32.859Z,70.10
2018-12-20T09:07:00.711Z,69.53
2018-12-20T09:09:29.091Z,65.43
2018-12-20T09:11:57.755Z,62.90
2018-12-20T09:14:25.714Z,62.10
2018-12-20T09:16:53.631Z,66.63
2018-12-20T09:19:22.425Z,69.43
2018-12-20T09:21:50.646Z,64.73
2018-12-20T09:24:18.474Z,61.90
2018-12-20T09:26:46.356Z,60.90
2018-12-20T09:29:14.488Z,61.43
2018-12-20T09:31:42.445Z,63.63
2018-12-20T09:34:10.319Z,59.03
2018-12-20T09:36:38.384Z,60.33
2018-12-20T09:39:07.229Z,59.20
2018-12-20T09:41:35.095Z,55.67
2018-12-20T09:44:03.185Z,56.50
2018-12-20T09:46:31.791Z,60.57
2018-12-20T09:48:59.612Z,52.83
2018-12-20T09:51:27.663Z,53.70
2018-12-20T09:53:55.560Z,53.50
2018-12-20T09:56:23.639Z,47.67
2018-12-20T09:58:51.480Z,48.67
2018-12-20T10:01:19.539Z,50.60
2018-12-20T10:03:47.755Z,47.17
2018-12-20T10:06:15.587Z,47.20
2018-12-20T10:08:43.598Z,55.27
2018-12-20T10:11:11.596Z,54.80
2018-12-20T10:13:40.682Z,47.77
2018-12-20T10:16:08.928Z,48.93
2018-12-20T10:18:36.863Z,53.27
2018-12-20T10:21:04.788Z,53.20
2018-12-20T10:23:33.065Z,50.17
2018-12-20T10:26:00.932Z,50.23
2018-12-20T10:28:29.108Z,49.87
2018-12-20T10:30:57.097Z,52.60
2018-12-20T10:33:24.965Z,55.77
2018-12-20T10:35:53.082Z,57.27
2018-12-20T10:38:21.199Z,63.00
2018-12-20T10:40:49.060Z,56.27
2018-12-20T10:43:17.080Z,54.87
2018-12-20T10:45:44.934Z,52.50
2018-12-20T10:48:13.116Z,52.70
2018-12-20T10:50:40.996Z,51.07
2018-12-20T10:53:08.911Z,54.37
2018-12-20T10:55:37.338Z,49.73
2018-12-20T10:58:05.281Z,49.63
2018-12-20T11:00:35.333Z,46.03
2018-12-20T11:03:09.428Z,44.33
2018-12-20T11:05:43.036Z,42.10
2018-12-20T11:08:27.824Z,42.33
2018-12-20T11:11:05.265Z,43.67
2018-12-20T11:13:33.132Z,43.67
2018-12-20T11:16:01.559Z,42.10
2018-12-20T11:18:29.511Z,39.17
2018-12-20T11:20:57.571Z,38.43
2018-12-20T11:23:25.528Z,38.37
2018-12-20T11:25:54.345Z,38.10
2018-12-20T11:28:22.759Z,36.23
2018-12-20T11:30:50.673Z,41.13
2018-12-20T11:33:18.738Z,36.47
2018-12-20T11:35:46.748Z,36.77
2018-12-20T11:38:14.620Z,36.30
2018-12-20T11:40:42.719Z,35.70
2018-12-20T11:43:10.568Z,35.80
2018-12-20T11:45:38.487Z,39.13
2018-12-20T11:48:06.603Z,41.73
2018-12-20T11:50:35.254Z,35.43
2018-12-20T11:53:03.175Z,39.43
2018-12-20T11:55:31.293Z,42.20
2018-12-20T11:57:59.960Z,40.50
2018-12-20T12:00:27.868Z,39.07
2018-12-20T12:02:55.705Z,39.20
2018-12-20T12:05:23.528Z,36.63
2018-12-20T12:07:52.052Z,44.70
2018-12-20T12:10:19.944Z,40.77
2018-12-20T12:12:47.906Z,46.63
2018-12-20T12:15:15.767Z,41.63
2018-12-20T12:17:43.728Z,47.67
2018-12-20T12:20:11.615Z,46.80
2018-12-20T12:22:39.499Z,47.43
2018-12-20T12:25:07.651Z,114.67
2018-12-20T12:27:36.053Z,45.43
2018-12-20T12:30:05.215Z,41.13
2018-12-20T12:32:33.332Z,41.33
2018-12-20T12:35:01.159Z,41.60
2018-12-20T12:37:29.044Z,36.00
2018-12-20T12:39:57.227Z,42.40
2018-12-20T12:42:25.060Z,46.53
2018-12-20T12:44:53.220Z,46.33
2018-12-20T12:47:23.176Z,44.83
2018-12-20T12:49:51.067Z,45.00
2018-12-20T12:52:19.424Z,40.40
2018-12-20T12:54:47.542Z,45.30
2018-12-20T12:57:16.244Z,45.20
2018-12-20T12:59:45.891Z,44.83
2018-12-20T13:02:14.009Z,43.87
2018-12-20T13:04:45.151Z,44.53
2018-12-20T13:07:13.060Z,49.47
2018-12-20T13:09:40.880Z,46.03
2018-12-20T13:12:09.040Z,44.57
2018-12-20T13:14:36.951Z,47.70
2018-12-20T13:17:04.781Z,41.90
2018-12-20T13:19:32.941Z,41.50
2018-12-20T13:22:01.179Z,46.00
2018-12-20T13:24:29.052Z,43.93
2018-12-20T13:26:57.170Z,41.33
2018-12-20T13:29:25.456Z,41.83
2018-12-20T13:31:53.370Z,39.60
2018-12-20T13:34:21.331Z,43.57
2018-12-20T13:36:49.276Z,38.77
2018-12-20T13:39:17.468Z,41.37
2018-12-20T13:41:45.347Z,43.27
2018-12-20T13:44:13.199Z,42.77
2018-12-20T13:46:41.632Z,40.17
2018-12-20T13:49:09.506Z,43.17
2018-12-20T13:51:37.573Z,44.90
2018-12-20T13:54:05.844Z,41.67
2018-12-20T13:56:33.737Z,42.13
2018-12-20T13:59:03.502Z,45.83
2018-12-20T14:01:32.005Z,41.70
2018-12-20T14:03:59.859Z,42.30
2018-12-20T14:06:27.677Z,42.80
2018-12-20T14:08:55.941Z,42.53
2018-12-20T14:11:23.837Z,43.30
2018-12-20T14:13:51.703Z,40.87
2018-12-20T14:16:20.129Z,43.30
2018-12-20T14:18:47.975Z,43.87
2018-12-20T14:21:16.653Z,43.57
2018-12-20T14:23:44.515Z,43.73
2018-12-20T14:26:12.410Z,45.17
2018-12-20T14:28:42.552Z,45.70
2018-12-20T14:31:11.182Z,46.07
2018-12-20T14:33:39.194Z,45.03
2018-12-20T14:36:07.963Z,47.77
2018-12-20T14:38:35.788Z,45.17
2018-12-20T14:41:03.978Z,44.00
2018-12-20T14:43:31.807Z,44.40
2018-12-20T14:45:59.659Z,40.57
2018-12-20T14:48:29.574Z,41.67
2018-12-20T14:50:57.468Z,41.67
2018-12-20T14:53:25.784Z,45.10
2018-12-20T14:55:53.657Z,42.20
2018-12-20T14:58:21.514Z,41.47
2018-12-20T15:00:49.436Z,43.67
2018-12-20T15:03:17.460Z,40.47
2018-12-20T15:05:45.317Z,43.40
2018-12-20T15:08:13.648Z,44.20
2018-12-20T15:10:41.799Z,45.07
2018-12-20T15:13:09.649Z,51.07
2018-12-20T15:15:37.585Z,44.33
2018-12-20T15:18:05.411Z,45.93
2018-12-20T15:20:40.529Z,42.37
2018-12-20T15:23:03.744Z,43.67
2018-12-20T15:25:32.329Z,44.70
2018-12-20T15:28:00.414Z,45.20
2018-12-20T15:30:28.430Z,47.07
2018-12-20T15:32:56.369Z,44.53
2018-12-20T15:35:24.640Z,47.90
2018-12-20T15:37:52.679Z,52.63
2018-12-20T15:40:20.606Z,62.97
2018-12-20T15:42:48.978Z,55.73
2018-12-20T15:45:17.057Z,52.70
2018-12-20T15:47:45.491Z,45.77
2018-12-20T15:50:13.714Z,47.07
2018-12-20T15:52:41.552Z,45.33
2018-12-20T15:55:09.395Z,44.53
2018-12-20T15:57:37.727Z,43.00
2018-12-20T16:00:08.128Z,46.20
2018-12-20T16:02:35.976Z,46.40
2018-12-20T16:05:05.239Z,43.80
2018-12-20T16:07:33.119Z,47.60
2018-12-20T16:10:01.941Z,46.90
2018-12-20T16:12:31.141Z,50.50
2018-12-20T16:14:59.090Z,47.90
2018-12-20T16:17:27.387Z,47.90
2018-12-20T16:19:58.693Z,46.23
2018-12-20T16:22:26.572Z,44.70
2018-12-20T16:24:54.437Z,49.90
2018-12-20T16:27:23.003Z,51.63
2018-12-20T16:29:51.058Z,42.90
2018-12-20T16:32:19.159Z,45.57
2018-12-20T16:34:46.999Z,49.93
2018-12-20T16:37:15.701Z,42.00
2018-12-20T16:39:43.540Z,42.43
2018-12-20T16:42:11.407Z,43.93
2018-12-20T16:44:39.664Z,50.37
2018-12-20T16:47:07.583Z,41.87
2018-12-20T16:49:35.861Z,46.43
2018-12-20T16:52:04.416Z,43.03
2018-12-20T16:54:32.244Z,42.10
2018-12-20T16:57:00.056Z,41.77
2018-12-20T16:59:28.279Z,40.00
2018-12-20T17:01:56.093Z,40.80
2018-12-20T17:04:23.957Z,36.70
2018-12-20T17:06:52.219Z,39.43
2018-12-20T17:09:21.001Z,41.23
2018-12-20T17:11:49.051Z,46.50
2018-12-20T17:14:16.895Z,37.17
2018-12-20T17:16:44.711Z,77.23
2018-12-20T17:19:12.811Z,36.07
2018-12-20T17:21:40.675Z,37.90
2018-12-20T17:24:08.540Z,39.20
2018-12-20T17:26:36.819Z,38.90
2018-12-20T17:29:04.789Z,36.40
2018-12-20T17:31:32.692Z,36.77
2018-12-20T17:34:02.612Z,38.40
2018-12-20T17:36:30.736Z,35.50
2018-12-20T17:38:58.857Z,41.30
2018-12-20T17:41:26.699Z,42.50
2018-12-20T17:43:54.594Z,40.50
2018-12-20T17:46:22.967Z,36.53
2018-12-20T17:48:51.304Z,40.30
2018-12-20T17:51:19.755Z,36.00
2018-12-20T17:53:47.966Z,32.53
2018-12-20T17:56:15.808Z,38.77
2018-12-20T17:58:43.946Z,39.30
2018-12-20T18:01:15.374Z,50.30
2018-12-20T18:03:43.451Z,40.03
2018-12-20T18:06:11.908Z,41.23
2018-12-20T18:08:39.959Z,45.70
2018-12-20T18:11:07.782Z,47.03
2018-12-20T18:13:36.053Z,39.13
2018-12-20T18:16:04.115Z,44.20
2018-12-20T18:18:32.547Z,35.47
2018-12-20T18:21:00.940Z,41.17
2018-12-20T18:28:11.735Z,38.33
2018-12-20T18:30:39.948Z,36.67
2018-12-20T18:33:07.842Z,36.87
2018-12-20T18:35:36.004Z,38.73
2018-12-20T18:38:07.040Z,37.80
2018-12-20T18:40:34.945Z,38.03
2018-12-20T18:43:04.238Z,35.37
2018-12-20T18:45:32.075Z,37.50
2018-12-20T18:47:59.934Z,32.70
2018-12-20T18:50:27.747Z,34.93
2018-12-20T18:52:56.220Z,32.83
2018-12-20T18:55:24.287Z,32.90
2018-12-20T18:57:52.564Z,32.73
2018-12-20T19:00:20.430Z,31.17
2018-12-20T19:02:48.243Z,29.33
2018-12-20T19:05:16.572Z,41.23
2018-12-20T19:07:44.484Z,33.73
2018-12-20T19:10:12.325Z,25.23
2018-12-20T19:12:40.655Z,27.53
2018-12-20T19:15:08.722Z,27.23
2018-12-20T19:17:36.560Z,25.20
2018-12-20T19:20:06.747Z,27.77
2018-12-20T19:22:34.918Z,24.37
2018-12-20T19:25:03.152Z,27.90
2018-12-20T19:27:31.712Z,23.13
2018-12-20T19:29:59.570Z,24.30
2018-12-20T19:32:27.803Z,21.73
2018-12-20T19:34:55.716Z,22.50
2018-12-20T19:37:23.572Z,26.83
2018-12-20T19:39:54.098Z,26.33
2018-12-20T19:42:22.038Z,23.20
2018-12-20T19:44:49.868Z,21.03
2018-12-20T19:47:18.119Z,28.07
2018-12-20T19:49:46.047Z,22.10
2018-12-20T19:52:14.324Z,22.30
2018-12-20T19:54:47.906Z,23.83
2018-12-20T19:57:12.408Z,24.33
2018-12-20T19:59:40.682Z,24.93
2018-12-20T20:02:08.954Z,24.07
2018-12-20T20:04:36.863Z,20.73
2018-12-20T20:07:04.870Z,22.13
2018-12-20T20:09:33.893Z,18.80
2018-12-20T20:12:02.083Z,21.20
2018-12-20T20:14:30.180Z,18.57
2018-12-20T20:16:58.206Z,21.07
2018-12-20T20:19:26.396Z,20.43
2018-12-20T20:21:54.305Z,21.47
2018-12-20T20:24:22.619Z,20.73
2018-12-20T20:26:50.981Z,18.90
2018-12-20T20:29:18.837Z,19.20
2018-12-20T20:31:46.790Z,16.07
2018-12-20T20:34:15.230Z,18.40
2018-12-20T20:36:43.165Z,15.80
2018-12-20T20:39:11.145Z,17.07
2018-12-20T20:41:39.627Z,16.97
2018-12-20T20:44:07.470Z,18.70
2018-12-20T20:46:35.485Z,18.80
2018-12-20T20:49:03.852Z,18.83
2018-12-20T20:51:33.559Z,18.73
2018-12-20T20:54:25.122Z,21.07
2018-12-20T20:56:53.797Z,19.20
2018-12-20T20:59:23.160Z,23.10
2018-12-20T21:01:59.813Z,23.93
2018-12-20T21:04:28.132Z,23.47
2018-12-20T21:06:57.041Z,28.03
2018-12-20T21:09:28.239Z,26.93
2018-12-20T21:11:56.220Z,24.57
2018-12-20T21:14:24.298Z,29.67
2018-12-20T21:16:52.550Z,30.87
2018-12-20T21:19:20.366Z,28.77
2018-12-20T21:21:48.352Z,29.50
2018-12-20T21:24:16.620Z,30.10
2018-12-20T21:26:44.491Z,28.43
2018-12-20T21:29:12.348Z,36.87
2018-12-20T21:31:40.188Z,30.90
2018-12-20T21:34:08.019Z,30.97
2018-12-20T21:41:04.374Z,35.43
2018-12-20T21:43:32.448Z,36.43
2018-12-20T21:46:00.756Z,35.30
2018-12-20T21:48:28.858Z,39.07
2018-12-20T21:50:57.244Z,39.70
2018-12-20T21:53:25.088Z,37.97
2018-12-20T21:55:52.956Z,35.93
2018-12-20T22:02:48.948Z,39.30
2018-12-20T22:05:16.830Z,39.77
2018-12-20T22:16:40.280Z,39.50
2018-12-20T22:19:08.106Z,42.77
2018-12-20T22:21:36.173Z,36.83
2018-12-20T22:28:32.943Z,40.53
2018-12-20T22:31:01.016Z,41.37
2018-12-20T22:33:29.088Z,40.60
2018-12-20T22:35:57.008Z,40.80
2018-12-20T22:38:58.175Z,40.77
2018-12-20T22:41:26.062Z,42.13
2018-12-20T22:43:54.339Z,43.67
2018-12-20T22:46:23.631Z,43.70
2018-12-20T22:48:53.351Z,43.90
2018-12-20T22:51:22.371Z,46.70
2018-12-20T22:53:50.728Z,46.30
2018-12-20T22:56:19.162Z,47.53
2018-12-20T22:58:48.047Z,47.77
2018-12-20T23:01:16.597Z,46.63
2018-12-20T23:03:45.202Z,50.90
2018-12-20T23:06:13.227Z,47.53
2018-12-20T23:08:41.311Z,49.60
2018-12-20T23:11:10.660Z,51.20
2018-12-20T23:13:38.653Z,44.27
2018-12-20T23:16:07.753Z,48.67
2018-12-20T23:18:38.390Z,51.80
2018-12-20T23:21:07.466Z,51.20
2018-12-20T23:23:36.275Z,51.20
2018-12-20T23:26:04.800Z,49.10
2018-12-20T23:28:32.784Z,52.23
2018-12-20T23:31:00.791Z,48.33
2018-12-20T23:33:28.893Z,54.23
2018-12-20T23:35:56.995Z,48.90
2018-12-20T23:38:24.915Z,49.47
2018-12-20T23:40:52.869Z,45.43
2018-12-20T23:43:20.763Z,45.93
2018-12-20T23:45:48.827Z,52.60
2018-12-20T23:48:16.920Z,49.83
2018-12-20T23:50:45.132Z,49.50
2018-12-20T23:53:13.096Z,52.50
2018-12-20T23:55:41.318Z,54.47
2018-12-20T23:58:09.364Z,52.97
